sensor_id;sensor_type;location;lat;lon;timestamp;P1;durP1;ratioP1;P2;durP2;ratioP2
42144;SDS011;27813;43.516;11.890;2022-08-19T03:21:24;9.52;;;4.40;;
42144;SDS011;27813;43.516;11.890;2022-08-19T03:25:30;12.45;;;3.83;;
42144;SDS011;27813;43.516;11.890;2022-08-19T03:29:39;8.38;;;4.03;;
42144;SDS011;27813;43.516;11.890;2022-08-19T03:33:46;11.80;;;4.15;;
42144;SDS011;27813;43.516;11.890;2022-08-19T03:37:52;9.85;;;3.63;;
42144;SDS011;27813;43.516;11.890;2022-08-19T03:41:57;8.73;;;3.83;;
42144;SDS011;27813;43.516;11.890;2022-08-19T03:46:28;12.32;;;4.47;;
42144;SDS011;27813;43.516;11.890;2022-08-19T03:50:38;14.02;;;5.03;;
42144;SDS011;27813;43.516;11.890;2022-08-19T03:54:44;12.43;;;4.63;;
42144;SDS011;27813;43.516;11.890;2022-08-19T03:58:48;14.23;;;5.00;;
42144;SDS011;27813;43.516;11.890;2022-08-19T04:02:53;13.70;;;4.75;;
42144;SDS011;27813;43.516;11.890;2022-08-19T04:07:02;12.00;;;4.28;;
42144;SDS011;27813;43.516;11.890;2022-08-19T04:11:07;10.93;;;4.57;;
42144;SDS011;27813;43.516;11.890;2022-08-19T04:15:13;10.68;;;4.30;;
42144;SDS011;27813;43.516;11.890;2022-08-19T04:19:19;11.50;;;4.18;;
42144;SDS011;27813;43.516;11.890;2022-08-19T04:23:24;10.45;;;4.45;;
42144;SDS011;27813;43.516;11.890;2022-08-19T04:27:31;11.57;;;4.75;;
42144;SDS011;27813;43.516;11.890;2022-08-19T04:31:36;16.27;;;4.90;;
42144;SDS011;27813;43.516;11.890;2022-08-19T04:35:42;18.08;;;6.07;;
42144;SDS011;27813;43.516;11.890;2022-08-19T04:39:48;12.55;;;4.60;;
42144;SDS011;27813;43.516;11.890;2022-08-19T04:44:12;12.77;;;5.30;;
42144;SDS011;27813;43.516;11.890;2022-08-19T04:48:21;14.68;;;4.72;;
42144;SDS011;27813;43.516;11.890;2022-08-19T04:52:30;15.30;;;5.28;;
42144;SDS011;27813;43.516;11.890;2022-08-19T04:56:35;17.48;;;5.93;;
42144;SDS011;27813;43.516;11.890;2022-08-19T05:00:40;17.45;;;5.25;;
42144;SDS011;27813;43.516;11.890;2022-08-19T05:04:45;14.80;;;5.70;;
42144;SDS011;27813;43.516;11.890;2022-08-19T05:08:49;18.48;;;6.07;;
42144;SDS011;27813;43.516;11.890;2022-08-19T05:12:54;15.45;;;5.60;;
42144;SDS011;27813;43.516;11.890;2022-08-19T05:17:00;22.08;;;7.82;;
42144;SDS011;27813;43.516;11.890;2022-08-19T05:21:25;26.73;;;8.95;;
42144;SDS011;27813;43.516;11.890;2022-08-19T05:25:50;26.35;;;9.45;;
42144;SDS011;27813;43.516;11.890;2022-08-19T05:29:55;29.80;;;8.93;;
42144;SDS011;27813;43.516;11.890;2022-08-19T05:34:02;20.80;;;8.57;;
42144;SDS011;27813;43.516;11.890;2022-08-19T05:38:20;23.45;;;8.32;;
42144;SDS011;27813;43.516;11.890;2022-08-19T05:42:25;21.65;;;8.85;;
42144;SDS011;27813;43.516;11.890;2022-08-19T05:46:29;20.88;;;8.13;;
42144;SDS011;27813;43.516;11.890;2022-08-19T05:50:35;19.98;;;7.30;;
42144;SDS011;27813;43.516;11.890;2022-08-19T05:54:41;16.02;;;7.90;;
42144;SDS011;27813;43.516;11.890;2022-08-19T05:58:46;14.63;;;6.70;;
42144;SDS011;27813;43.516;11.890;2022-08-19T06:02:53;16.17;;;8.07;;
42144;SDS011;27813;43.516;11.890;2022-08-19T06:07:00;19.75;;;9.07;;
42144;SDS011;27813;43.516;11.890;2022-08-19T06:11:16;21.75;;;10.18;;
42144;SDS011;27813;43.516;11.890;2022-08-19T06:15:23;13.90;;;7.85;;
42144;SDS011;27813;43.516;11.890;2022-08-19T06:19:29;21.02;;;10.63;;
42144;SDS011;27813;43.516;11.890;2022-08-19T06:23:34;17.52;;;9.10;;
42144;SDS011;27813;43.516;11.890;2022-08-19T06:27:38;12.82;;;6.68;;
42144;SDS011;27813;43.516;11.890;2022-08-19T06:32:04;9.60;;;5.85;;
42144;SDS011;27813;43.516;11.890;2022-08-19T06:40:37;17.20;;;9.60;;
42144;SDS011;27813;43.516;11.890;2022-08-19T06:44:42;25.15;;;11.13;;
42144;SDS011;27813;43.516;11.890;2022-08-19T06:48:51;15.60;;;8.85;;
42144;SDS011;27813;43.516;11.890;2022-08-19T06:52:57;16.20;;;7.72;;
42144;SDS011;27813;43.516;11.890;2022-08-19T06:57:06;12.43;;;8.10;;
42144;SDS011;27813;43.516;11.890;2022-08-19T07:01:16;19.05;;;8.60;;
42144;SDS011;27813;43.516;11.890;2022-08-19T07:05:22;18.63;;;10.88;;
42144;SDS011;27813;43.516;11.890;2022-08-19T07:09:27;13.77;;;7.07;;
42144;SDS011;27813;43.516;11.890;2022-08-19T07:13:34;19.63;;;8.52;;
42144;SDS011;27813;43.516;11.890;2022-08-19T07:17:40;18.40;;;8.52;;
42144;SDS011;27813;43.516;11.890;2022-08-19T07:21:56;23.27;;;11.70;;
42144;SDS011;27813;43.516;11.890;2022-08-19T07:26:38;19.15;;;9.80;;
42144;SDS011;27813;43.516;11.890;2022-08-19T07:30:36;13.00;;;7.50;;
42144;SDS011;27813;43.516;11.890;2022-08-19T07:34:46;18.17;;;9.18;;
42144;SDS011;27813;43.516;11.890;2022-08-19T07:38:51;20.08;;;10.75;;
42144;SDS011;27813;43.516;11.890;2022-08-19T07:42:57;15.82;;;9.88;;
42144;SDS011;27813;43.516;11.890;2022-08-19T07:47:03;17.35;;;8.30;;
42144;SDS011;27813;43.516;11.890;2022-08-19T07:51:08;11.40;;;7.03;;
42144;SDS011;27813;43.516;11.890;2022-08-19T07:55:18;13.57;;;8.50;;
42144;SDS011;27813;43.516;11.890;2022-08-19T07:59:44;15.20;;;8.20;;
42144;SDS011;27813;43.516;11.890;2022-08-19T08:03:49;14.52;;;8.50;;
42144;SDS011;27813;43.516;11.890;2022-08-19T08:08:13;14.50;;;6.75;;
42144;SDS011;27813;43.516;11.890;2022-08-19T08:12:39;10.75;;;7.38;;
42144;SDS011;27813;43.516;11.890;2022-08-19T08:17:05;9.90;;;5.82;;
42144;SDS011;27813;43.516;11.890;2022-08-19T08:21:13;9.20;;;4.72;;
42144;SDS011;27813;43.516;11.890;2022-08-19T08:25:19;10.90;;;6.50;;
42144;SDS011;27813;43.516;11.890;2022-08-19T08:29:30;11.18;;;6.43;;
42144;SDS011;27813;43.516;11.890;2022-08-19T08:33:37;11.70;;;6.10;;
42144;SDS011;27813;43.516;11.890;2022-08-19T08:37:45;14.35;;;5.18;;
42144;SDS011;27813;43.516;11.890;2022-08-19T08:50:40;7.45;;;4.32;;
42144;SDS011;27813;43.516;11.890;2022-08-19T08:54:48;8.00;;;3.70;;
42144;SDS011;27813;43.516;11.890;2022-08-19T08:59:03;8.98;;;3.60;;
42144;SDS011;27813;43.516;11.890;2022-08-19T09:03:21;7.25;;;3.85;;
42144;SDS011;27813;43.516;11.890;2022-08-19T09:16:18;5.75;;;2.92;;
42144;SDS011;27813;43.516;11.890;2022-08-19T09:20:30;11.85;;;5.45;;
42144;SDS011;27813;43.516;11.890;2022-08-19T09:24:36;7.18;;;3.60;;
42144;SDS011;27813;43.516;11.890;2022-08-19T09:28:43;7.35;;;3.88;;
42144;SDS011;27813;43.516;11.890;2022-08-19T09:32:51;9.30;;;4.03;;
42144;SDS011;27813;43.516;11.890;2022-08-19T09:36:59;6.82;;;3.40;;
42144;SDS011;27813;43.516;11.890;2022-08-19T09:41:04;5.97;;;3.22;;
42144;SDS011;27813;43.516;11.890;2022-08-19T09:45:17;6.95;;;3.53;;
42144;SDS011;27813;43.516;11.890;2022-08-19T09:49:25;5.13;;;2.85;;
42144;SDS011;27813;43.516;11.890;2022-08-19T09:53:30;6.35;;;3.00;;
42144;SDS011;27813;43.516;11.890;2022-08-19T09:57:36;5.97;;;3.25;;
42144;SDS011;27813;43.516;11.890;2022-08-19T10:01:40;9.50;;;2.75;;
42144;SDS011;27813;43.516;11.890;2022-08-19T10:05:46;6.63;;;2.50;;
42144;SDS011;27813;43.516;11.890;2022-08-19T10:09:57;3.42;;;2.55;;
42144;SDS011;27813;43.516;11.890;2022-08-19T10:14:02;5.18;;;2.30;;
42144;SDS011;27813;43.516;11.890;2022-08-19T10:18:09;5.35;;;2.15;;
42144;SDS011;27813;43.516;11.890;2022-08-19T10:22:15;5.00;;;2.40;;
42144;SDS011;27813;43.516;11.890;2022-08-19T10:26:21;5.72;;;2.55;;
42144;SDS011;27813;43.516;11.890;2022-08-19T10:30:28;4.68;;;2.75;;
42144;SDS011;27813;43.516;11.890;2022-08-19T10:34:33;3.95;;;2.38;;
42144;SDS011;27813;43.516;11.890;2022-08-19T10:38:51;5.45;;;2.70;;
42144;SDS011;27813;43.516;11.890;2022-08-19T10:43:01;5.30;;;2.53;;
42144;SDS011;27813;43.516;11.890;2022-08-19T10:47:06;5.65;;;2.38;;
42144;SDS011;27813;43.516;11.890;2022-08-19T10:51:29;5.72;;;3.10;;
42144;SDS011;27813;43.516;11.890;2022-08-19T10:55:53;5.18;;;2.10;;
42144;SDS011;27813;43.516;11.890;2022-08-19T11:00:16;3.80;;;2.47;;
42144;SDS011;27813;43.516;11.890;2022-08-19T11:04:20;5.47;;;2.40;;
42144;SDS011;27813;43.516;11.890;2022-08-19T11:08:31;4.78;;;1.90;;
42144;SDS011;27813;43.516;11.890;2022-08-19T11:12:39;5.03;;;2.17;;
42144;SDS011;27813;43.516;11.890;2022-08-19T11:16:44;4.78;;;1.80;;
42144;SDS011;27813;43.516;11.890;2022-08-19T11:20:49;5.55;;;1.95;;
42144;SDS011;27813;43.516;11.890;2022-08-19T11:24:54;4.03;;;1.92;;
42144;SDS011;27813;43.516;11.890;2022-08-19T11:28:59;7.38;;;2.88;;
42144;SDS011;27813;43.516;11.890;2022-08-19T11:33:05;5.20;;;2.00;;
42144;SDS011;27813;43.516;11.890;2022-08-19T11:37:14;5.55;;;1.98;;
42144;SDS011;27813;43.516;11.890;2022-08-19T11:41:20;3.88;;;2.00;;
42144;SDS011;27813;43.516;11.890;2022-08-19T11:45:27;5.50;;;2.55;;
42144;SDS011;27813;43.516;11.890;2022-08-19T11:49:32;4.80;;;2.22;;
42144;SDS011;27813;43.516;11.890;2022-08-19T11:53:39;3.10;;;1.42;;
42144;SDS011;27813;43.516;11.890;2022-08-19T11:57:48;3.83;;;1.50;;
42144;SDS011;27813;43.516;11.890;2022-08-19T12:01:53;5.03;;;1.73;;
42144;SDS011;27813;43.516;11.890;2022-08-19T12:06:02;3.30;;;1.42;;
42144;SDS011;27813;43.516;11.890;2022-08-19T12:10:11;4.72;;;1.80;;
42144;SDS011;27813;43.516;11.890;2022-08-19T12:14:21;10.10;;;2.10;;
42144;SDS011;27813;43.516;11.890;2022-08-19T12:18:26;220.63;;;10.27;;
42144;SDS011;27813;43.516;11.890;2022-08-19T12:34:53;34.53;;;15.48;;
42144;SDS011;27813;43.516;11.890;2022-08-19T12:38:58;28.85;;;12.82;;
42144;SDS011;27813;43.516;11.890;2022-08-19T12:43:04;7.53;;;4.90;;
42144;SDS011;27813;43.516;11.890;2022-08-19T12:47:11;102.88;;;9.70;;
42144;SDS011;27813;43.516;11.890;2022-08-19T13:05:01;14.98;;;7.60;;
42144;SDS011;27813;43.516;11.890;2022-08-19T13:09:06;15.00;;;6.60;;
42144;SDS011;27813;43.516;11.890;2022-08-19T13:13:12;17.95;;;6.53;;
42144;SDS011;27813;43.516;11.890;2022-08-19T13:17:16;11.80;;;6.28;;
42144;SDS011;27813;43.516;11.890;2022-08-19T13:21:24;15.27;;;7.55;;
42144;SDS011;27813;43.516;11.890;2022-08-19T13:25:33;17.92;;;8.98;;
42144;SDS011;27813;43.516;11.890;2022-08-19T13:29:39;8.75;;;4.50;;
42144;SDS011;27813;43.516;11.890;2022-08-19T13:34:04;5.38;;;3.40;;
42144;SDS011;27813;43.516;11.890;2022-08-19T13:38:09;6.13;;;3.30;;
42144;SDS011;27813;43.516;11.890;2022-08-19T13:42:14;4.68;;;2.40;;
42144;SDS011;27813;43.516;11.890;2022-08-19T13:46:18;4.25;;;2.72;;
42144;SDS011;27813;43.516;11.890;2022-08-19T13:50:25;4.20;;;2.92;;
42144;SDS011;27813;43.516;11.890;2022-08-19T13:54:31;4.22;;;3.50;;
42144;SDS011;27813;43.516;11.890;2022-08-19T13:58:36;4.32;;;3.40;;
42144;SDS011;27813;43.516;11.890;2022-08-19T14:02:41;6.82;;;3.65;;
42144;SDS011;27813;43.516;11.890;2022-08-19T14:06:46;5.88;;;3.80;;
42144;SDS011;27813;43.516;11.890;2022-08-19T14:10:52;4.38;;;3.58;;
42144;SDS011;27813;43.516;11.890;2022-08-19T14:14:56;4.32;;;3.35;;
42144;SDS011;27813;43.516;11.890;2022-08-19T14:19:02;5.82;;;3.25;;
42144;SDS011;27813;43.516;11.890;2022-08-19T14:23:06;5.93;;;3.72;;
42144;SDS011;27813;43.516;11.890;2022-08-19T14:27:10;3.70;;;3.30;;
42144;SDS011;27813;43.516;11.890;2022-08-19T14:31:16;3.63;;;3.33;;
42144;SDS011;27813;43.516;11.890;2022-08-19T14:35:24;6.35;;;3.75;;
42144;SDS011;27813;43.516;11.890;2022-08-19T14:39:31;4.07;;;3.47;;
42144;SDS011;27813;43.516;11.890;2022-08-19T14:43:36;8.27;;;4.63;;
42144;SDS011;27813;43.516;11.890;2022-08-19T14:47:41;6.50;;;4.00;;
42144;SDS011;27813;43.516;11.890;2022-08-19T14:51:47;5.32;;;3.88;;
42144;SDS011;27813;43.516;11.890;2022-08-19T14:55:52;2.97;;;2.63;;
42144;SDS011;27813;43.516;11.890;2022-08-19T14:59:56;3.60;;;2.00;;
42144;SDS011;27813;43.516;11.890;2022-08-19T15:04:02;3.63;;;2.00;;
42144;SDS011;27813;43.516;11.890;2022-08-19T15:08:07;3.45;;;1.75;;
42144;SDS011;27813;43.516;11.890;2022-08-19T15:12:11;1.60;;;1.30;;
42144;SDS011;27813;43.516;11.890;2022-08-19T15:16:23;3.42;;;1.35;;
42144;SDS011;27813;43.516;11.890;2022-08-19T15:20:28;1.90;;;1.45;;
42144;SDS011;27813;43.516;11.890;2022-08-19T15:24:33;2.03;;;1.63;;
42144;SDS011;27813;43.516;11.890;2022-08-19T15:28:50;3.63;;;2.03;;
42144;SDS011;27813;43.516;11.890;2022-08-19T15:32:55;1.70;;;1.60;;
42144;SDS011;27813;43.516;11.890;2022-08-19T15:37:01;3.45;;;2.03;;
42144;SDS011;27813;43.516;11.890;2022-08-19T15:45:44;1.98;;;1.48;;
42144;SDS011;27813;43.516;11.890;2022-08-19T15:49:51;2.55;;;1.50;;
42144;SDS011;27813;43.516;11.890;2022-08-19T15:54:02;2.00;;;1.55;;
42144;SDS011;27813;43.516;11.890;2022-08-19T15:58:11;1.80;;;1.30;;
42144;SDS011;27813;43.516;11.890;2022-08-19T16:02:35;5.22;;;1.40;;
42144;SDS011;27813;43.516;11.890;2022-08-19T16:06:59;3.67;;;1.50;;
42144;SDS011;27813;43.516;11.890;2022-08-19T16:11:04;3.13;;;1.50;;
42144;SDS011;27813;43.516;11.890;2022-08-19T16:15:09;4.50;;;1.60;;
42144;SDS011;27813;43.516;11.890;2022-08-19T16:19:16;2.55;;;1.33;;
42144;SDS011;27813;43.516;11.890;2022-08-19T16:23:22;3.17;;;1.83;;
42144;SDS011;27813;43.516;11.890;2022-08-19T16:27:26;2.45;;;1.40;;
42144;SDS011;27813;43.516;11.890;2022-08-19T16:31:30;2.03;;;1.50;;
42144;SDS011;27813;43.516;11.890;2022-08-19T16:35:34;2.85;;;1.83;;
42144;SDS011;27813;43.516;11.890;2022-08-19T16:39:39;2.33;;;1.38;;
42144;SDS011;27813;43.516;11.890;2022-08-19T16:43:46;1.70;;;1.10;;
42144;SDS011;27813;43.516;11.890;2022-08-19T16:47:58;2.75;;;1.25;;
42144;SDS011;27813;43.516;11.890;2022-08-19T16:52:04;2.35;;;1.55;;
42144;SDS011;27813;43.516;11.890;2022-08-19T16:56:16;1.83;;;1.27;;
42144;SDS011;27813;43.516;11.890;2022-08-19T17:00:24;1.88;;;1.27;;
42144;SDS011;27813;43.516;11.890;2022-08-19T17:04:28;2.63;;;1.50;;
42144;SDS011;27813;43.516;11.890;2022-08-19T17:08:33;2.17;;;1.35;;
42144;SDS011;27813;43.516;11.890;2022-08-19T17:12:37;3.20;;;1.58;;
42144;SDS011;27813;43.516;11.890;2022-08-19T17:16:42;3.13;;;1.50;;
42144;SDS011;27813;43.516;11.890;2022-08-19T17:20:47;2.50;;;1.75;;
42144;SDS011;27813;43.516;11.890;2022-08-19T17:24:59;2.05;;;1.20;;
42144;SDS011;27813;43.516;11.890;2022-08-19T17:29:03;2.78;;;1.73;;
42144;SDS011;27813;43.516;11.890;2022-08-19T17:33:07;4.50;;;1.60;;
42144;SDS011;27813;43.516;11.890;2022-08-19T17:37:14;4.93;;;1.33;;
42144;SDS011;27813;43.516;11.890;2022-08-19T17:41:20;4.07;;;1.50;;
42144;SDS011;27813;43.516;11.890;2022-08-19T17:45:27;1.85;;;1.40;;
42144;SDS011;27813;43.516;11.890;2022-08-19T17:49:31;4.70;;;1.27;;
42144;SDS011;27813;43.516;11.890;2022-08-19T17:53:36;4.00;;;1.27;;
42144;SDS011;27813;43.516;11.890;2022-08-19T17:57:41;2.80;;;1.23;;
42144;SDS011;27813;43.516;11.890;2022-08-19T18:01:48;2.83;;;1.35;;
42144;SDS011;27813;43.516;11.890;2022-08-19T18:05:56;2.75;;;1.30;;
42144;SDS011;27813;43.516;11.890;2022-08-19T18:10:02;2.42;;;1.40;;
42144;SDS011;27813;43.516;11.890;2022-08-19T18:14:06;2.42;;;1.33;;
42144;SDS011;27813;43.516;11.890;2022-08-19T18:18:11;3.80;;;1.70;;
42144;SDS011;27813;43.516;11.890;2022-08-19T18:22:28;3.90;;;1.88;;
42144;SDS011;27813;43.516;11.890;2022-08-19T18:26:40;7.07;;;1.90;;
42144;SDS011;27813;43.516;11.890;2022-08-19T18:30:45;4.22;;;1.83;;
42144;SDS011;27813;43.516;11.890;2022-08-19T18:34:51;2.33;;;1.70;;
42144;SDS011;27813;43.516;11.890;2022-08-19T18:38:58;4.93;;;1.60;;
42144;SDS011;27813;43.516;11.890;2022-08-19T18:43:22;2.00;;;1.58;;
42144;SDS011;27813;43.516;11.890;2022-08-19T18:47:29;2.92;;;1.23;;
42144;SDS011;27813;43.516;11.890;2022-08-19T18:51:53;3.90;;;1.52;;
42144;SDS011;27813;43.516;11.890;2022-08-19T18:56:05;3.50;;;1.30;;
42144;SDS011;27813;43.516;11.890;2022-08-19T19:00:12;3.47;;;1.90;;
42144;SDS011;27813;43.516;11.890;2022-08-19T19:04:26;4.32;;;2.20;;
42144;SDS011;27813;43.516;11.890;2022-08-19T19:08:38;5.70;;;2.05;;
42144;SDS011;27813;43.516;11.890;2022-08-19T19:12:43;1.95;;;1.58;;
42144;SDS011;27813;43.516;11.890;2022-08-19T19:16:48;3.22;;;1.50;;
42144;SDS011;27813;43.516;11.890;2022-08-19T19:20:55;4.43;;;1.55;;
42144;SDS011;27813;43.516;11.890;2022-08-19T19:24:59;4.20;;;1.80;;
42144;SDS011;27813;43.516;11.890;2022-08-19T19:29:06;7.90;;;1.52;;
42144;SDS011;27813;43.516;11.890;2022-08-19T19:33:10;4.00;;;1.65;;
42144;SDS011;27813;43.516;11.890;2022-08-19T19:37:16;3.08;;;1.75;;
42144;SDS011;27813;43.516;11.890;2022-08-19T19:41:23;3.13;;;2.03;;
42144;SDS011;27813;43.516;11.890;2022-08-19T19:45:36;4.38;;;1.63;;
42144;SDS011;27813;43.516;11.890;2022-08-19T19:49:43;2.20;;;1.75;;
42144;SDS011;27813;43.516;11.890;2022-08-19T19:54:39;5.95;;;1.90;;
42144;SDS011;27813;43.516;11.890;2022-08-19T19:59:03;5.90;;;1.90;;
42144;SDS011;27813;43.516;11.890;2022-08-19T20:03:27;3.20;;;1.70;;
42144;SDS011;27813;43.516;11.890;2022-08-19T20:07:37;4.85;;;1.70;;
42144;SDS011;27813;43.516;11.890;2022-08-19T20:12:06;5.45;;;1.73;;
42144;SDS011;27813;43.516;11.890;2022-08-19T20:16:19;3.20;;;1.95;;
42144;SDS011;27813;43.516;11.890;2022-08-19T20:20:38;2.95;;;1.98;;
42144;SDS011;27813;43.516;11.890;2022-08-19T20:25:06;4.68;;;1.70;;
42144;SDS011;27813;43.516;11.890;2022-08-19T20:29:28;6.05;;;1.95;;
42144;SDS011;27813;43.516;11.890;2022-08-19T20:33:51;6.30;;;1.95;;
42144;SDS011;27813;43.516;11.890;2022-08-19T20:38:06;4.70;;;2.20;;
42144;SDS011;27813;43.516;11.890;2022-08-19T20:42:23;3.00;;;2.28;;
42144;SDS011;27813;43.516;11.890;2022-08-19T20:46:32;4.93;;;2.15;;
42144;SDS011;27813;43.516;11.890;2022-08-19T20:50:56;4.40;;;2.10;;
42144;SDS011;27813;43.516;11.890;2022-08-19T20:55:07;4.68;;;2.42;;
42144;SDS011;27813;43.516;11.890;2022-08-19T20:59:24;4.50;;;2.10;;
42144;SDS011;27813;43.516;11.890;2022-08-19T21:03:42;5.10;;;2.38;;
42144;SDS011;27813;43.516;11.890;2022-08-19T21:07:50;5.20;;;2.28;;
42144;SDS011;27813;43.516;11.890;2022-08-19T21:11:56;3.40;;;2.10;;
42144;SDS011;27813;43.516;11.890;2022-08-19T21:16:02;4.43;;;2.00;;
42144;SDS011;27813;43.516;11.890;2022-08-19T21:20:21;6.78;;;2.10;;
42144;SDS011;27813;43.516;11.890;2022-08-19T21:24:30;5.60;;;2.10;;
42144;SDS011;27813;43.516;11.890;2022-08-19T21:28:39;6.22;;;2.50;;
42144;SDS011;27813;43.516;11.890;2022-08-19T21:32:50;5.22;;;2.00;;
42144;SDS011;27813;43.516;11.890;2022-08-19T21:36:55;6.90;;;3.42;;
42144;SDS011;27813;43.516;11.890;2022-08-19T21:41:00;5.70;;;2.70;;
42144;SDS011;27813;43.516;11.890;2022-08-19T21:45:08;6.43;;;2.60;;
42144;SDS011;27813;43.516;11.890;2022-08-19T21:49:14;5.25;;;2.45;;
42144;SDS011;27813;43.516;11.890;2022-08-19T21:53:18;6.03;;;2.50;;
42144;SDS011;27813;43.516;11.890;2022-08-19T21:57:25;4.28;;;2.20;;
42144;SDS011;27813;43.516;11.890;2022-08-19T22:01:32;4.05;;;2.22;;
42144;SDS011;27813;43.516;11.890;2022-08-19T22:05:37;3.33;;;1.90;;
42144;SDS011;27813;43.516;11.890;2022-08-19T22:09:41;4.55;;;2.20;;
42144;SDS011;27813;43.516;11.890;2022-08-19T22:13:47;5.32;;;2.60;;
42144;SDS011;27813;43.516;11.890;2022-08-19T22:17:56;4.95;;;2.60;;
42144;SDS011;27813;43.516;11.890;2022-08-19T22:22:03;6.30;;;3.05;;
42144;SDS011;27813;43.516;11.890;2022-08-19T22:26:08;5.57;;;3.05;;
42144;SDS011;27813;43.516;11.890;2022-08-19T22:30:13;4.47;;;2.95;;
42144;SDS011;27813;43.516;11.890;2022-08-19T22:34:19;7.50;;;3.20;;
42144;SDS011;27813;43.516;11.890;2022-08-19T22:38:23;3.75;;;2.42;;
42144;SDS011;27813;43.516;11.890;2022-08-19T22:42:30;6.40;;;2.58;;
42144;SDS011;27813;43.516;11.890;2022-08-19T22:46:36;3.25;;;2.30;;
42144;SDS011;27813;43.516;11.890;2022-08-19T22:50:42;4.95;;;2.28;;
42144;SDS011;27813;43.516;11.890;2022-08-19T22:55:07;3.53;;;2.47;;
42144;SDS011;27813;43.516;11.890;2022-08-19T22:59:11;6.40;;;2.88;;
42144;SDS011;27813;43.516;11.890;2022-08-19T23:03:16;7.68;;;3.55;;
42144;SDS011;27813;43.516;11.890;2022-08-19T23:07:20;10.95;;;3.78;;
42144;SDS011;27813;43.516;11.890;2022-08-19T23:11:25;13.18;;;4.85;;
42144;SDS011;27813;43.516;11.890;2022-08-19T23:15:30;7.00;;;3.58;;
42144;SDS011;27813;43.516;11.890;2022-08-19T23:19:35;9.57;;;3.70;;
42144;SDS011;27813;43.516;11.890;2022-08-19T23:23:40;5.65;;;3.08;;
42144;SDS011;27813;43.516;11.890;2022-08-19T23:27:45;8.10;;;3.60;;
